createdAt,value
2022-11-19T11:10:25.246Z,15.49
2022-11-19T11:13:44.693Z,15.78
2022-11-19T11:16:47.746Z,15.14
2022-11-19T11:19:33.713Z,15.60
2022-11-19T11:22:21.687Z,15.37
2022-11-19T11:25:19.528Z,14.58
2022-11-19T11:28:14.907Z,15.83
2022-11-19T11:31:06.823Z,17.07
2022-11-19T11:33:57.435Z,14.54
2022-11-19T11:36:44.092Z,16.14
2022-11-19T11:39:32.105Z,17.03
2022-11-19T11:42:19.431Z,17.51
2022-11-19T11:45:07.499Z,15.83
2022-11-19T11:47:52.929Z,14.58
2022-11-19T11:50:38.507Z,15.69
2022-11-19T11:53:33.398Z,16.38
2022-11-19T11:56:21.359Z,15.92
2022-11-19T11:59:25.224Z,13.99
2022-11-19T12:02:30.512Z,13.88
2022-11-19T12:05:18.402Z,13.65
2022-11-19T12:08:13.589Z,11.81
2022-11-19T12:11:11.495Z,11.81
2022-11-19T12:14:12.583Z,12.08
2022-11-19T12:17:02.896Z,11.18
2022-11-19T12:19:48.123Z,11.24
2022-11-19T12:22:50.371Z,11.50
2022-11-19T12:25:41.627Z,11.33
2022-11-19T12:28:48.876Z,10.01
2022-11-19T12:32:15.794Z,10.70
2022-11-19T12:35:18.476Z,11.10
2022-11-19T12:38:16.064Z,12.25
2022-11-19T12:41:24.018Z,11.89
2022-11-19T12:44:46.596Z,13.26
2022-11-19T12:47:56.280Z,13.54
2022-11-19T12:50:49.501Z,12.48
2022-11-19T12:53:54.260Z,13.19
2022-11-19T12:56:46.658Z,12.57
2022-11-19T12:59:56.921Z,13.51
2022-11-19T13:03:01.216Z,14.00
2022-11-19T13:06:00.788Z,14.07
2022-11-19T13:08:59.058Z,13.12
2022-11-19T13:11:56.686Z,12.92
2022-11-19T13:14:49.524Z,13.23
2022-11-19T13:17:44.403Z,13.15
2022-11-19T13:20:48.668Z,14.61
2022-11-19T13:23:39.891Z,15.36
2022-11-19T13:26:36.810Z,16.53
2022-11-19T13:29:45.646Z,15.32
2022-11-19T13:32:39.936Z,13.85
2022-11-19T13:35:35.340Z,13.13
2022-11-19T13:38:34.615Z,13.35
2022-11-19T13:41:20.050Z,12.08
2022-11-19T13:44:24.392Z,10.32
2022-11-19T13:47:48.398Z,9.88
2022-11-19T13:50:43.254Z,9.46
2022-11-19T13:53:40.585Z,8.20
2022-11-19T13:56:45.419Z,7.94
2022-11-19T13:59:38.946Z,7.69
2022-11-19T14:02:59.113Z,7.32
2022-11-19T14:06:25.583Z,6.57
2022-11-19T14:09:46.701Z,6.57
2022-11-19T14:12:40.945Z,6.51
2022-11-19T14:16:00.000Z,6.03
2022-11-19T14:19:08.254Z,5.61
2022-11-19T14:22:13.305Z,5.67
2022-11-19T14:25:17.171Z,5.29
2022-11-19T14:28:41.223Z,5.18
2022-11-19T14:31:26.546Z,5.14
2022-11-19T14:34:26.747Z,4.84
2022-11-19T14:37:23.468Z,4.95
2022-11-19T14:40:28.187Z,4.68
2022-11-19T14:43:34.959Z,4.46
2022-11-19T14:46:26.401Z,4.31
2022-11-19T14:49:29.362Z,4.20
2022-11-19T14:52:24.149Z,4.14
2022-11-19T14:55:29.669Z,3.95
2022-11-19T14:58:24.600Z,3.92
2022-11-19T15:01:20.889Z,3.90
2022-11-19T15:04:10.534Z,3.71
2022-11-19T15:06:56.670Z,3.69
2022-11-19T15:10:10.123Z,3.63
2022-11-19T15:13:15.538Z,3.59
2022-11-19T15:16:18.789Z,3.30
2022-11-19T15:19:31.748Z,3.14
2022-11-19T15:22:37.270Z,3.00
2022-11-19T15:25:31.306Z,2.79
2022-11-19T15:28:31.640Z,2.71
2022-11-19T15:31:41.326Z,2.52
2022-11-19T15:35:04.016Z,2.46
2022-11-19T15:37:59.271Z,2.25
2022-11-19T15:40:46.199Z,2.12
2022-11-19T15:43:40.142Z,2.01
2022-11-19T15:46:42.743Z,1.91
2022-11-19T15:49:30.187Z,1.96
2022-11-19T15:52:25.999Z,1.98
2022-11-19T15:55:17.481Z,2.06
2022-11-19T15:58:14.325Z,1.98
2022-11-19T16:01:00.084Z,1.79
2022-11-19T16:03:45.783Z,1.58
2022-11-19T16:06:31.700Z,1.64
2022-11-19T16:09:24.951Z,1.48
2022-11-19T16:12:39.351Z,1.33
2022-11-19T16:15:45.110Z,1.22
2022-11-19T16:18:31.088Z,1.18
2022-11-19T16:21:28.902Z,1.21
2022-11-19T16:24:37.014Z,1.18
2022-11-19T16:27:24.745Z,1.22
2022-11-19T16:30:17.579Z,1.17
2022-11-19T16:33:02.968Z,1.17
2022-11-19T16:35:52.910Z,1.03
2022-11-19T16:38:42.361Z,1.14
2022-11-19T16:41:46.761Z,1.02
2022-11-19T16:44:33.151Z,1.00
2022-11-19T16:47:37.590Z,0.96
2022-11-19T16:50:35.887Z,0.98
2022-11-19T16:53:47.457Z,0.99
2022-11-19T16:56:37.328Z,1.10
2022-11-19T16:59:25.782Z,1.07
2022-11-19T17:02:17.534Z,1.12
2022-11-19T17:05:09.247Z,1.00
2022-11-19T17:08:08.133Z,1.02
2022-11-19T17:11:35.374Z,0.94
2022-11-19T17:14:51.377Z,0.98
2022-11-19T17:17:41.232Z,0.98
2022-11-19T17:20:27.141Z,1.00
2022-11-19T17:23:18.389Z,0.98
2022-11-19T17:26:07.144Z,0.98
2022-11-19T17:29:11.667Z,0.96
2022-11-19T17:31:57.553Z,0.91
2022-11-19T17:34:45.838Z,0.92
2022-11-19T17:37:31.762Z,0.86
2022-11-19T17:40:17.679Z,0.88
2022-11-19T17:43:23.916Z,0.85
2022-11-19T17:46:10.285Z,0.94
2022-11-19T17:48:56.845Z,0.87
2022-11-19T17:51:42.274Z,0.81
2022-11-19T17:54:29.854Z,0.73
2022-11-19T17:57:15.143Z,0.59
2022-11-19T18:00:00.407Z,0.64
2022-11-19T18:02:48.586Z,0.66
2022-11-19T18:05:36.566Z,0.64
2022-11-19T18:08:22.121Z,0.75
2022-11-19T18:11:13.213Z,0.75
2022-11-19T18:14:09.918Z,0.78
2022-11-19T18:16:56.314Z,0.86
2022-11-19T18:19:41.943Z,0.87
2022-11-19T18:22:27.626Z,0.91
2022-11-19T18:25:18.499Z,0.96
2022-11-19T18:28:04.029Z,0.93
2022-11-19T18:30:49.391Z,0.98
2022-11-19T18:33:36.180Z,1.03
2022-11-19T18:36:22.863Z,0.90
2022-11-19T18:39:08.470Z,0.91
2022-11-19T18:41:53.861Z,0.75
2022-11-19T18:44:41.671Z,0.78
2022-11-19T18:47:27.187Z,0.79
2022-11-19T18:50:12.484Z,0.78
2022-11-19T18:52:58.032Z,0.85
2022-11-19T18:55:45.779Z,0.90
2022-11-19T18:58:32.420Z,0.93
2022-11-19T19:01:18.616Z,0.99
2022-11-19T19:04:05.320Z,0.96
2022-11-19T19:06:51.485Z,0.85
2022-11-19T19:09:37.452Z,0.82
2022-11-19T19:12:23.176Z,0.65
2022-11-19T19:15:09.017Z,0.61
2022-11-19T19:17:54.634Z,0.55
2022-11-19T19:20:40.243Z,0.47
2022-11-19T19:23:25.749Z,0.45
2022-11-19T19:26:13.171Z,0.46
2022-11-19T19:28:58.824Z,0.51
2022-11-19T19:31:44.507Z,0.38
2022-11-19T19:34:30.535Z,0.27
2022-11-19T19:37:15.918Z,0.23
2022-11-19T19:40:01.350Z,0.22
2022-11-19T19:42:46.882Z,0.23
2022-11-19T19:45:35.651Z,0.27
2022-11-19T19:48:20.961Z,0.11
2022-11-19T19:51:06.460Z,0.20
2022-11-19T19:53:52.276Z,0.36
2022-11-19T19:56:37.574Z,0.44
2022-11-19T19:59:23.392Z,0.61
2022-11-19T20:02:10.222Z,0.65
2022-11-19T20:04:55.937Z,0.70
2022-11-19T20:07:41.738Z,0.69
2022-11-19T20:10:27.271Z,0.77
2022-11-19T20:13:27.552Z,0.80
2022-11-19T20:16:18.765Z,0.74
2022-11-19T20:19:07.079Z,0.86
2022-11-19T20:21:52.687Z,0.84
2022-11-19T20:24:38.369Z,0.86
2022-11-19T20:27:23.815Z,1.00
2022-11-19T20:30:09.628Z,1.03
2022-11-19T20:32:55.113Z,1.06
2022-11-19T20:35:49.857Z,1.11
2022-11-19T20:38:37.354Z,1.28
2022-11-19T20:41:42.125Z,1.31
2022-11-19T20:44:27.850Z,1.27
2022-11-19T20:47:13.408Z,1.32
2022-11-19T20:49:58.714Z,1.31
2022-11-19T20:52:44.128Z,1.26
2022-11-19T20:55:29.670Z,1.34
2022-11-19T20:58:15.049Z,1.43
2022-11-19T21:01:07.830Z,1.46
2022-11-19T21:03:53.976Z,1.44
2022-11-19T21:06:39.958Z,1.56
2022-11-19T21:09:26.026Z,1.43
2022-11-19T21:12:11.965Z,1.54
2022-11-19T21:14:57.374Z,1.47
2022-11-19T21:17:42.947Z,1.51
2022-11-19T21:20:28.175Z,1.51
2022-11-19T21:23:13.717Z,1.60
2022-11-19T21:26:04.326Z,1.57
2022-11-19T21:28:52.412Z,1.52
2022-11-19T21:31:38.680Z,1.48
2022-11-19T21:34:24.789Z,1.51
2022-11-19T21:37:10.597Z,1.49
2022-11-19T21:39:55.995Z,1.48
2022-11-19T21:42:41.775Z,1.47
2022-11-19T21:45:27.097Z,1.51
2022-11-19T21:48:12.734Z,1.60
2022-11-19T21:50:58.396Z,1.50
2022-11-19T21:53:43.784Z,1.48
2022-11-19T21:56:33.796Z,1.44
2022-11-19T21:59:21.212Z,1.51
2022-11-19T22:02:06.725Z,1.49
2022-11-19T22:04:52.416Z,1.53
2022-11-19T22:07:37.944Z,1.63
2022-11-19T22:10:23.301Z,1.64
2022-11-19T22:13:09.046Z,1.63
2022-11-19T22:16:00.927Z,1.53
2022-11-19T22:18:46.380Z,1.58
2022-11-19T22:21:32.736Z,1.52
2022-11-19T22:24:18.441Z,1.49
2022-11-19T22:27:04.001Z,1.61
2022-11-19T22:29:49.694Z,1.56
2022-11-19T22:32:35.338Z,1.56
2022-11-19T22:35:20.661Z,1.58
2022-11-19T22:38:05.900Z,1.49
2022-11-19T22:40:51.482Z,1.50
2022-11-19T22:43:38.381Z,1.63
2022-11-19T22:46:23.648Z,1.57
2022-11-19T22:49:09.107Z,1.53
2022-11-19T22:51:54.485Z,1.40
2022-11-19T22:54:41.778Z,1.50
2022-11-19T22:57:27.874Z,1.50
2022-11-19T23:00:33.399Z,1.48
2022-11-19T23:03:19.237Z,1.43
2022-11-19T23:06:04.786Z,1.43
2022-11-19T23:08:51.004Z,1.48
2022-11-19T23:11:54.788Z,1.33
2022-11-19T23:14:40.490Z,1.37
2022-11-19T23:17:26.050Z,1.34
2022-11-19T23:20:11.839Z,1.52
2022-11-19T23:22:57.305Z,1.52
2022-11-19T23:25:43.000Z,1.43
2022-11-19T23:28:30.446Z,1.56
2022-11-19T23:31:24.104Z,1.63
2022-11-19T23:34:09.775Z,1.61
2022-11-19T23:36:55.187Z,1.60
2022-11-19T23:39:40.856Z,1.69
2022-11-19T23:42:26.430Z,1.63
2022-11-19T23:45:11.539Z,1.64
2022-11-19T23:47:57.366Z,1.68
2022-11-19T23:50:43.211Z,1.65
2022-11-19T23:53:28.636Z,1.65
2022-11-19T23:56:15.369Z,1.53
2022-11-19T23:59:02.351Z,1.55
